San Francisco Bridge — 3FPV6 — position and weather

sailwx.info

Track history (hours):
 
Tides and Currents Weather Stations Pressure Air Temp Water Temp Dewpoint Dewpoint Depression Visibility Wind Speed Wind Dir Waves Ship Positions

San Francisco Bridge

Last reported at 2017-Sep-16 06:31 UTC. Time now 2017-Sep-21 12:28 UTC.
Position N 50°58' W 129°57'.

Length 293 m; draft 12.5 m.

Type: Ship (hazmat cat B). MMSI: 355400000.

Date/timePositionNaut miles runAvg speedWind from/ knotsBaromVisibWave heightAir tempDewpointWater temp
2017-Sep-16 06:31N 50°58' W 129°57'119.3
2017-Sep-16 06:29N 50°58' W 129°56'1017.9
2017-Sep-16 05:57N 50°52' W 129°44'817.8
2017-Sep-16 05:30N 50°47' W 129°34'917.3
2017-Sep-16 04:59N 50°41' W 129°23'817.2
2017-Sep-16 04:30N 50°36' W 129°13'917.3
2017-Sep-16 03:58N 50°30' W 129°02'817.1
2017-Sep-16 03:30N 50°26' W 128°52'816.8
2017-Sep-16 03:00N 50°20' W 128°42'916.9
2017-Sep-16 02:28N 50°15' W 128°30'1416.5
2017-Sep-16 01:37N 50°06' W 128°14'416.6
2017-Sep-16 01:23N 50°03' W 128°09'1116.6
2017-Sep-16 00:44N 49°57' W 127°56'1616.7
2017-Sep-15 23:48N 49°47' W 127°37'516.9
2017-Sep-15 23:30N 49°44' W 127°31'817.0
2017-Sep-15 23:00N 49°39' W 127°20'917.7
2017-Sep-15 22:30N 49°34' W 127°09'1117.5
2017-Sep-15 21:53N 49°27' W 126°56'717.7
2017-Sep-15 21:30N 49°23' W 126°48'918.0
2017-Sep-15 21:00N 49°17' W 126°38'917.7
2017-Sep-15 20:30N 49°11' W 126°27'917.5
2017-Sep-15 20:00N 49°06' W 126°16'917.4
2017-Sep-15 19:30N 49°01' W 126°06'917.5
2017-Sep-15 19:00N 48°55' W 125°55'917.1
2017-Sep-15 18:30N 48°50' W 125°45'917.4
2017-Sep-15 18:00N 48°44' W 125°35'917.3
2017-Sep-15 17:30N 48°39' W 125°25'917.4
2017-Sep-15 17:00N 48°34' W 125°14'816.0
2017-Sep-15 16:30N 48°31' W 125°03'816.7
2017-Sep-15 16:00N 48°31' W 124°51'917.1
2017-Sep-15 15:30N 48°29' W 124°38'917.8
2017-Sep-15 15:00N 48°26' W 124°25'918.2
2017-Sep-15 14:30N 48°23' W 124°13'918.0
2017-Sep-15 14:00N 48°19' W 124°00'1019.5
2017-Sep-15 13:30N 48°17' W 123°46'1019.9
2017-Sep-15 13:00N 48°15' W 123°31'816.4
2017-Sep-15 12:30N 48°22' W 123°25'611.5
2017-Sep-15 12:00N 48°23' W 123°16'918.6
2017-Sep-15 11:30N 48°32' W 123°13'1020.3
2017-Sep-15 11:00N 48°42' W 123°14'1020.6
2017-Sep-15 10:30N 48°48' W 123°01'918.9
2017-Sep-15 10:00N 48°56' W 123°07'4 8.8
2017-Sep-15 09:30N 49°00' W 123°10'1 1.5
2017-Sep-15 08:57N 49°01' W 123°09'0 0.0
2017-Sep-15 08:27N 49°01' W 123°09'0 0.0
2017-Sep-15 08:00N 49°01' W 123°09'0 0.0
2017-Sep-15 07:27N 49°01' W 123°09'0 0.0
2017-Sep-15 06:57N 49°01' W 123°09'0 0.0
2017-Sep-15 06:30N 49°01' W 123°09'0 0.0
2017-Sep-15 06:00N 49°01' W 123°09'0 0.0
2017-Sep-15 05:30N 49°01' W 123°09'0 0.0
2017-Sep-15 04:54N 49°01' W 123°09'0 0.0
2017-Sep-15 04:27N 49°01' W 123°09'0 0.0
2017-Sep-15 04:00N 49°01' W 123°09'0 0.0
2017-Sep-15 03:30N 49°01' W 123°09'0 0.0
2017-Sep-15 03:00N 49°01' W 123°09'0 0.0
2017-Sep-15 02:30N 49°01' W 123°09'0 0.0
2017-Sep-15 02:00N 49°01' W 123°09'0 0.0
2017-Sep-15 01:27N 49°01' W 123°09'0 0.1
2017-Sep-15 01:00N 49°01' W 123°09'0 0.1
2017-Sep-15 00:30N 49°01' W 123°09'0 0.0
2017-Sep-15 00:00N 49°01' W 123°09'0 0.0
2017-Sep-14 23:30N 49°01' W 123°09'0 0.0
2017-Sep-14 22:51N 49°01' W 123°09'0 0.0
2017-Sep-14 22:30N 49°01' W 123°09'0 0.0
2017-Sep-14 21:57N 49°01' W 123°09'0 0.0
2017-Sep-14 21:30N 49°01' W 123°09'0 0.0
2017-Sep-14 21:00N 49°01' W 123°09'0 0.0
2017-Sep-14 20:27N 49°01' W 123°09'0 0.0
2017-Sep-14 20:00N 49°01' W 123°09'0 0.1
2017-Sep-14 19:30N 49°01' W 123°09'0 0.1
2017-Sep-14 19:00N 49°01' W 123°09'0 0.0
2017-Sep-14 18:30N 49°01' W 123°09'0 0.0
2017-Sep-14 18:00N 49°01' W 123°09'0 0.0
2017-Sep-14 17:24N 49°01' W 123°09'0 0.0
2017-Sep-14 16:57N 49°01' W 123°09'0 0.0
2017-Sep-14 16:30N 49°01' W 123°09'0 0.0
2017-Sep-14 16:00N 49°01' W 123°09'0 0.0
2017-Sep-14 15:30N 49°01' W 123°09'0 0.0
2017-Sep-14 15:00N 49°01' W 123°09'0 0.0
2017-Sep-14 14:30N 49°01' W 123°09'0 0.0
2017-Sep-14 14:00N 49°01' W 123°09'0 0.0
2017-Sep-14 13:30N 49°01' W 123°09'0 0.1
2017-Sep-14 12:57N 49°01' W 123°09'0 0.1
2017-Sep-14 12:15N 49°01' W 123°09'0 0.0
2017-Sep-14 11:57N 49°01' W 123°09'0 0.1
2017-Sep-14 11:27N 49°01' W 123°09'0 0.1
2017-Sep-14 10:51N 49°01' W 123°09'0 0.0
2017-Sep-14 10:21N 49°01' W 123°09'0 0.0
2017-Sep-14 10:00N 49°01' W 123°09'0 0.0
2017-Sep-14 09:27N 49°01' W 123°09'0 0.0
2017-Sep-14 08:57N 49°01' W 123°09'0 0.0
2017-Sep-14 08:30N 49°01' W 123°09'0 0.0
2017-Sep-14 08:00N 49°01' W 123°09'0 0.0
2017-Sep-14 07:30N 49°01' W 123°09'0 0.0
2017-Sep-14 07:00N 49°01' W 123°09'0 0.0
2017-Sep-14 06:30N 49°01' W 123°09'0 0.0
2017-Sep-14 06:00N 49°01' W 123°09'0 0.0
2017-Sep-14 05:30N 49°01' W 123°09'0 0.0
2017-Sep-14 05:00N 49°01' W 123°09'0 0.0
2017-Sep-14 04:30N 49°01' W 123°09'0 0.0
2017-Sep-14 04:00N 49°01' W 123°09'0 0.0
2017-Sep-14 03:30N 49°01' W 123°09'0 0.0
2017-Sep-14 03:00N 49°01' W 123°09'0 0.0
2017-Sep-14 02:30N 49°01' W 123°09'0 0.0
2017-Sep-14 02:00N 49°01' W 123°09'0 0.0
2017-Sep-14 01:30N 49°01' W 123°09'0 0.0
2017-Sep-14 01:00N 49°01' W 123°09'0 0.0
2017-Sep-14 00:30N 49°01' W 123°09'0 0.0
2017-Sep-14 00:00N 49°01' W 123°09'0 0.0
2017-Sep-13 23:30N 49°01' W 123°09'0 0.0
2017-Sep-13 23:00N 49°01' W 123°09'0 0.0
2017-Sep-13 22:30N 49°01' W 123°09'0 0.0
2017-Sep-13 22:00N 49°01' W 123°09'0 0.0
2017-Sep-13 21:30N 49°01' W 123°09'0 0.0
2017-Sep-13 21:00N 49°01' W 123°09'0 0.0
2017-Sep-13 20:30N 49°01' W 123°09'0 0.0
2017-Sep-13 20:00N 49°01' W 123°09'0 0.0
2017-Sep-13 19:30N 49°01' W 123°09'0 0.0
2017-Sep-13 19:00N 49°01' W 123°09'0 0.0
2017-Sep-13 17:54N 49°01' W 123°09'0 0.0
2017-Sep-13 17:30N 49°01' W 123°09'0 0.0
2017-Sep-13 17:00N 49°01' W 123°09'0 0.0
2017-Sep-13 16:27N 49°01' W 123°09'0 0.0
2017-Sep-13 15:54N 49°01' W 123°09'0 0.0
2017-Sep-13 15:30N 49°01' W 123°09'0 0.0
2017-Sep-13 15:00N 49°01' W 123°09'0 0.0
2017-Sep-13 14:30N 49°01' W 123°09'0 0.0
2017-Sep-13 14:00N 49°01' W 123°09'0 0.0
2017-Sep-13 13:30N 49°01' W 123°09'0 0.0
2017-Sep-13 13:00N 49°01' W 123°09'0 0.0
2017-Sep-13 12:30N 49°01' W 123°09'0 0.0
2017-Sep-13 12:00N 49°01' W 123°09'0 0.1
2017-Sep-13 11:30N 49°01' W 123°09'0 0.1
2017-Sep-13 11:00N 49°01' W 123°09'0 0.0
2017-Sep-13 10:30N 49°01' W 123°09'0 0.0
2017-Sep-13 10:00N 49°01' W 123°09'0 0.0
2017-Sep-13 09:30N 49°01' W 123°09'0 0.0
2017-Sep-13 09:00N 49°01' W 123°09'0 0.0
2017-Sep-13 08:30N 49°01' W 123°09'0 0.0
2017-Sep-13 08:00N 49°01' W 123°09'0 0.0
2017-Sep-13 07:30N 49°01' W 123°09'0 0.0
2017-Sep-13 07:00N 49°01' W 123°09'0 0.0
2017-Sep-13 06:30N 49°01' W 123°09'0 0.0
2017-Sep-13 05:57N 49°01' W 123°09'0 0.0
2017-Sep-13 05:30N 49°01' W 123°09'0 0.0
2017-Sep-13 05:00N 49°01' W 123°09'0 0.0
2017-Sep-13 04:30N 49°01' W 123°09'0 0.0
2017-Sep-13 04:00N 49°01' W 123°09'0 0.0
2017-Sep-13 03:27N 49°01' W 123°09'0 0.0
2017-Sep-13 03:00N 49°01' W 123°09'0 0.0
2017-Sep-13 02:27N 49°01' W 123°09'0 0.0
2017-Sep-13 02:00N 49°01' W 123°09'0 0.3
2017-Sep-13 01:30N 49°01' W 123°09'3 5.6
2017-Sep-13 01:00N 48°58' W 123°09'510.8
2017-Sep-13 00:31N 48°54' W 123°04'815.8
2017-Sep-13 00:01N 48°46' W 123°02'918.9
2017-Sep-12 23:30N 48°42' W 123°14'918.5
2017-Sep-12 23:00N 48°33' W 123°12'917.6
2017-Sep-12 22:30N 48°24' W 123°12'714.5
2017-Sep-12 22:00N 48°22' W 123°23'714.6
2017-Sep-12 21:31N 48°15' W 123°26'713.5
2017-Sep-12 21:00N 48°09' W 123°23'714.4
2017-Sep-12 20:30N 48°11' W 123°12'1019.6
2017-Sep-12 20:00N 48°12' W 122°57'1020.3
2017-Sep-12 19:30N 48°09' W 122°43'1019.7
2017-Sep-12 19:01N 48°01' W 122°36'1019.5
2017-Sep-12 18:31N 47°53' W 122°28'917.8
2017-Sep-12 18:01N 47°44' W 122°26'816.9
2017-Sep-12 17:31N 47°35' W 122°27'715.0
2017-Sep-12 17:01N 47°28' W 122°24'611.8
2017-Sep-12 16:30N 47°23' W 122°21'612.4
2017-Sep-12 16:00N 47°18' W 122°27'2 3.8
2017-Sep-12 15:30N 47°17' W 122°25'0 0.2
2017-Sep-12 14:59N 47°17' W 122°25'0 0.0
2017-Sep-12 14:29N 47°17' W 122°25'0 0.0
2017-Sep-12 13:59N 47°17' W 122°25'0 0.0
2017-Sep-12 13:29N 47°17' W 122°25'0 0.0
2017-Sep-12 12:59N 47°17' W 122°25'0 0.0
2017-Sep-12 12:26N 47°17' W 122°25'0 0.0
2017-Sep-12 11:59N 47°17' W 122°25'0 0.0
2017-Sep-12 11:29N 47°17' W 122°25'0 0.0
2017-Sep-12 10:59N 47°17' W 122°25'0 0.0
2017-Sep-12 10:26N 47°17' W 122°25'0 0.0
2017-Sep-12 09:59N 47°17' W 122°25'0 0.0
2017-Sep-12 09:29N 47°17' W 122°25'0 0.0
2017-Sep-12 08:59N 47°17' W 122°25'0 0.0
2017-Sep-12 08:29N 47°17' W 122°25'0 0.0
2017-Sep-12 07:59N 47°17' W 122°25'0 0.0
2017-Sep-12 07:29N 47°17' W 122°25'0 0.0
2017-Sep-12 06:59N 47°17' W 122°25'0 0.0
2017-Sep-12 06:26N 47°17' W 122°25'0 0.0
2017-Sep-12 05:56N 47°17' W 122°25'0 0.0
2017-Sep-12 05:26N 47°17' W 122°25'0 0.0
2017-Sep-12 04:32N 47°17' W 122°25'0 0.0
2017-Sep-12 04:20N 47°17' W 122°25'0 0.0
2017-Sep-12 03:59N 47°17' W 122°25'0 0.0
2017-Sep-12 02:50N 47°17' W 122°25'0 0.0
2017-Sep-12 01:26N 47°17' W 122°25'0 0.0
2017-Sep-12 00:59N 47°17' W 122°25'0 0.0
2017-Sep-12 00:29N 47°17' W 122°25'0 0.0
2017-Sep-11 23:59N 47°17' W 122°25'0 0.0
2017-Sep-11 23:29N 47°17' W 122°25'0 0.0
2017-Sep-11 22:59N 47°17' W 122°25'0 0.0
2017-Sep-11 22:29N 47°17' W 122°25'0 0.0
2017-Sep-11 21:59N 47°17' W 122°25'0 0.0
2017-Sep-11 21:29N 47°17' W 122°25'0 0.0
2017-Sep-11 20:59N 47°17' W 122°25'0 0.0
2017-Sep-11 20:29N 47°17' W 122°25'0 0.0
2017-Sep-11 19:56N 47°17' W 122°25'0 0.0
2017-Sep-11 19:29N 47°17' W 122°25'0 0.0
2017-Sep-11 18:59N 47°17' W 122°25'0 0.0
2017-Sep-11 18:29N 47°17' W 122°25'0 0.0
2017-Sep-11 17:59N 47°17' W 122°25'0 0.0
2017-Sep-11 17:29N 47°17' W 122°25'0 0.0
2017-Sep-11 16:53N 47°17' W 122°25'0 0.0
2017-Sep-11 16:29N 47°17' W 122°25'0 0.0
2017-Sep-11 15:59N 47°17' W 122°25'0 0.0
2017-Sep-11 15:26N 47°17' W 122°25'0 0.0
2017-Sep-11 14:56N 47°17' W 122°25'0 0.0
2017-Sep-11 14:29N 47°17' W 122°25'0 0.0
2017-Sep-11 13:59N 47°17' W 122°25'0 0.0
2017-Sep-11 13:23N 47°17' W 122°25'0 0.0
2017-Sep-11 12:56N 47°17' W 122°25'0 0.0
2017-Sep-11 12:29N 47°17' W 122°25'0 0.0
2017-Sep-11 11:59N 47°17' W 122°25'0 0.0
2017-Sep-11 11:26N 47°17' W 122°25'0 0.0
2017-Sep-11 10:59N 47°17' W 122°25'0 0.0
2017-Sep-11 10:26N 47°17' W 122°25'0 0.0
2017-Sep-11 09:59N 47°17' W 122°25'0 0.0
2017-Sep-11 09:29N 47°17' W 122°25'0 0.0
2017-Sep-11 08:59N 47°17' W 122°25'0 0.0
2017-Sep-11 08:29N 47°17' W 122°25'0 0.0
2017-Sep-11 07:56N 47°17' W 122°25'0 0.0
2017-Sep-11 07:29N 47°17' W 122°25'0 0.0
2017-Sep-11 06:59N 47°17' W 122°25'0 0.0
2017-Sep-11 06:26N 47°17' W 122°25'0 0.0
2017-Sep-11 05:59N 47°17' W 122°25'0 0.0
2017-Sep-11 05:29N 47°17' W 122°25'0 0.0
2017-Sep-11 04:59N 47°17' W 122°25'0 0.0
2017-Sep-11 04:08N 47°17' W 122°25'0 0.0
2017-Sep-11 03:44N 47°17' W 122°25'0 0.0
2017-Sep-11 03:29N 47°17' W 122°25'0 0.0
2017-Sep-11 02:59N 47°17' W 122°25'0 0.0
2017-Sep-11 02:29N 47°17' W 122°25'0 0.0
2017-Sep-11 01:59N 47°17' W 122°25'0 0.0
2017-Sep-11 01:29N 47°17' W 122°25'0 0.0
2017-Sep-11 00:59N 47°17' W 122°25'0 0.0
2017-Sep-11 00:29N 47°17' W 122°25'0 0.0
2017-Sep-10 23:59N 47°17' W 122°25'0 0.0
2017-Sep-10 23:29N 47°17' W 122°25'0 0.0
2017-Sep-10 22:59N 47°17' W 122°25'0 0.0
2017-Sep-10 22:29N 47°17' W 122°25'0 0.0
2017-Sep-10 21:56N 47°17' W 122°25'0 0.0
2017-Sep-10 21:29N 47°17' W 122°25'0 0.0
2017-Sep-10 20:59N 47°17' W 122°25'0 0.0
2017-Sep-10 20:29N 47°17' W 122°25'0 0.0
2017-Sep-10 19:59N 47°17' W 122°25'0 0.0
2017-Sep-10 19:26N 47°17' W 122°25'0 0.0
2017-Sep-10 18:59N 47°17' W 122°25'0 0.0
2017-Sep-10 18:29N 47°17' W 122°25'0 0.0
2017-Sep-10 17:59N 47°17' W 122°25'0 0.0
2017-Sep-10 17:29N 47°17' W 122°25'0 0.0
2017-Sep-10 16:59N 47°17' W 122°25'0 0.0
2017-Sep-10 16:29N 47°17' W 122°25'0 0.0
2017-Sep-10 15:56N 47°17' W 122°25'0 0.0
2017-Sep-10 15:29N 47°17' W 122°25'0 0.0
2017-Sep-10 14:59N 47°17' W 122°25'0 0.0
2017-Sep-10 13:59N 47°17' W 122°25'0 0.0
2017-Sep-10 13:26N 47°17' W 122°25'0 0.0
2017-Sep-10 12:59N 47°17' W 122°25'0 0.8
2017-Sep-10 12:30N 47°17' W 122°25'3 6.0
2017-Sep-10 12:00N 47°19' W 122°28'612.8
2017-Sep-10 11:31N 47°25' W 122°23'1019.1
2017-Sep-10 11:01N 47°34' W 122°27'1019.3
2017-Sep-10 10:31N 47°43' W 122°27'917.0
2017-Sep-10 10:00N 47°52' W 122°29'510.3
2017-Sep-10 09:30N 47°56' W 122°32'816.9
2017-Sep-10 09:00N 48°04' W 122°39'917.1
2017-Sep-10 08:30N 48°10' W 122°47'918.3
2017-Sep-10 08:00N 48°12' W 123°00'917.9
2017-Sep-10 07:30N 48°11' W 123°14'612.9
2017-Sep-10 07:00N 48°10' W 123°23'5 9.2
2017-Sep-10 06:30N 48°12' W 123°29'612.5
2017-Sep-10 06:00N 48°13' W 123°38'714.6
2017-Sep-10 05:30N 48°13' W 123°49'815.1
2017-Sep-10 05:00N 48°15' W 124°01'815.5
2017-Sep-10 04:30N 48°18' W 124°11'815.7
2017-Sep-10 04:00N 48°22' W 124°22'815.3
2017-Sep-10 03:30N 48°25' W 124°32'815.4
2017-Sep-10 03:00N 48°28' W 124°43'816.1
2017-Sep-10 02:30N 48°29' W 124°55'816.6
2017-Sep-10 02:00N 48°29' W 125°07'816.2
2017-Sep-10 01:30N 48°29' W 125°20'816.2
2017-Sep-10 01:01N 48°29' W 125°32'816.1
2017-Sep-10 00:30N 48°28' W 125°44'815.7
2017-Sep-10 00:00N 48°28' W 125°56'816.1
2017-Sep-09 23:30N 48°29' W 126°08'816.3
2017-Sep-09 23:00N 48°29' W 126°20'916.1
2017-Sep-09 22:27N 48°29' W 126°34'  
Track history (hours):
 
Tides and Currents Weather Stations Pressure Air Temp Water Temp Dewpoint Dewpoint Depression Visibility Wind Speed Wind Dir Waves Ship Positions

San Francisco Bridge

Last reported at 2017-Sep-16 06:31 UTC. Time now 2017-Sep-21 12:28 UTC.
Position N 50°58' W 129°57'.

Length 293 m; draft 12.5 m.

Type: Ship (hazmat cat B). MMSI: 355400000.

Date/timePositionNaut miles runAvg speedWind from/ knotsBaromVisibWave heightAir tempDewpointWater temp
2017-Sep-16 06:31N 50°58' W 129°57'119.3
2017-Sep-16 06:29N 50°58' W 129°56'1017.9
2017-Sep-16 05:57N 50°52' W 129°44'817.8
2017-Sep-16 05:30N 50°47' W 129°34'917.3
2017-Sep-16 04:59N 50°41' W 129°23'817.2
2017-Sep-16 04:30N 50°36' W 129°13'917.3
2017-Sep-16 03:58N 50°30' W 129°02'817.1
2017-Sep-16 03:30N 50°26' W 128°52'816.8
2017-Sep-16 03:00N 50°20' W 128°42'916.9
2017-Sep-16 02:28N 50°15' W 128°30'1416.5
2017-Sep-16 01:37N 50°06' W 128°14'416.6
2017-Sep-16 01:23N 50°03' W 128°09'1116.6
2017-Sep-16 00:44N 49°57' W 127°56'1616.7
2017-Sep-15 23:48N 49°47' W 127°37'516.9
2017-Sep-15 23:30N 49°44' W 127°31'817.0
2017-Sep-15 23:00N 49°39' W 127°20'917.7
2017-Sep-15 22:30N 49°34' W 127°09'1117.5
2017-Sep-15 21:53N 49°27' W 126°56'717.7
2017-Sep-15 21:30N 49°23' W 126°48'918.0
2017-Sep-15 21:00N 49°17' W 126°38'917.7
2017-Sep-15 20:30N 49°11' W 126°27'917.5
2017-Sep-15 20:00N 49°06' W 126°16'917.4
2017-Sep-15 19:30N 49°01' W 126°06'917.5
2017-Sep-15 19:00N 48°55' W 125°55'917.1
2017-Sep-15 18:30N 48°50' W 125°45'917.4
2017-Sep-15 18:00N 48°44' W 125°35'917.3
2017-Sep-15 17:30N 48°39' W 125°25'917.4
2017-Sep-15 17:00N 48°34' W 125°14'816.0
2017-Sep-15 16:30N 48°31' W 125°03'816.7
2017-Sep-15 16:00N 48°31' W 124°51'917.1
2017-Sep-15 15:30N 48°29' W 124°38'917.8
2017-Sep-15 15:00N 48°26' W 124°25'918.2
2017-Sep-15 14:30N 48°23' W 124°13'918.0
2017-Sep-15 14:00N 48°19' W 124°00'1019.5
2017-Sep-15 13:30N 48°17' W 123°46'1019.9
2017-Sep-15 13:00N 48°15' W 123°31'816.4
2017-Sep-15 12:30N 48°22' W 123°25'611.5
2017-Sep-15 12:00N 48°23' W 123°16'918.6
2017-Sep-15 11:30N 48°32' W 123°13'1020.3
2017-Sep-15 11:00N 48°42' W 123°14'1020.6
2017-Sep-15 10:30N 48°48' W 123°01'918.9
2017-Sep-15 10:00N 48°56' W 123°07'4 8.8
2017-Sep-15 09:30N 49°00' W 123°10'1 1.5
2017-Sep-15 08:57N 49°01' W 123°09'0 0.0
2017-Sep-15 08:27N 49°01' W 123°09'0 0.0
2017-Sep-15 08:00N 49°01' W 123°09'0 0.0
2017-Sep-15 07:27N 49°01' W 123°09'0 0.0
2017-Sep-15 06:57N 49°01' W 123°09'0 0.0
2017-Sep-15 06:30N 49°01' W 123°09'0 0.0
2017-Sep-15 06:00N 49°01' W 123°09'0 0.0
2017-Sep-15 05:30N 49°01' W 123°09'0 0.0
2017-Sep-15 04:54N 49°01' W 123°09'0 0.0
2017-Sep-15 04:27N 49°01' W 123°09'0 0.0
2017-Sep-15 04:00N 49°01' W 123°09'0 0.0
2017-Sep-15 03:30N 49°01' W 123°09'0 0.0
2017-Sep-15 03:00N 49°01' W 123°09'0 0.0
2017-Sep-15 02:30N 49°01' W 123°09'0 0.0
2017-Sep-15 02:00N 49°01' W 123°09'0 0.0
2017-Sep-15 01:27N 49°01' W 123°09'0 0.1
2017-Sep-15 01:00N 49°01' W 123°09'0 0.1
2017-Sep-15 00:30N 49°01' W 123°09'0 0.0
2017-Sep-15 00:00N 49°01' W 123°09'0 0.0
2017-Sep-14 23:30N 49°01' W 123°09'0 0.0
2017-Sep-14 22:51N 49°01' W 123°09'0 0.0
2017-Sep-14 22:30N 49°01' W 123°09'0 0.0
2017-Sep-14 21:57N 49°01' W 123°09'0 0.0
2017-Sep-14 21:30N 49°01' W 123°09'0 0.0
2017-Sep-14 21:00N 49°01' W 123°09'0 0.0
2017-Sep-14 20:27N 49°01' W 123°09'0 0.0
2017-Sep-14 20:00N 49°01' W 123°09'0 0.1
2017-Sep-14 19:30N 49°01' W 123°09'0 0.1
2017-Sep-14 19:00N 49°01' W 123°09'0 0.0
2017-Sep-14 18:30N 49°01' W 123°09'0 0.0
2017-Sep-14 18:00N 49°01' W 123°09'0 0.0
2017-Sep-14 17:24N 49°01' W 123°09'0 0.0
2017-Sep-14 16:57N 49°01' W 123°09'0 0.0
2017-Sep-14 16:30N 49°01' W 123°09'0 0.0
2017-Sep-14 16:00N 49°01' W 123°09'0 0.0
2017-Sep-14 15:30N 49°01' W 123°09'0 0.0
2017-Sep-14 15:00N 49°01' W 123°09'0 0.0
2017-Sep-14 14:30N 49°01' W 123°09'0 0.0
2017-Sep-14 14:00N 49°01' W 123°09'0 0.0
2017-Sep-14 13:30N 49°01' W 123°09'0 0.1
2017-Sep-14 12:57N 49°01' W 123°09'0 0.1
2017-Sep-14 12:15N 49°01' W 123°09'0 0.0
2017-Sep-14 11:57N 49°01' W 123°09'0 0.1
2017-Sep-14 11:27N 49°01' W 123°09'0 0.1
2017-Sep-14 10:51N 49°01' W 123°09'0 0.0
2017-Sep-14 10:21N 49°01' W 123°09'0 0.0
2017-Sep-14 10:00N 49°01' W 123°09'0 0.0
2017-Sep-14 09:27N 49°01' W 123°09'0 0.0
2017-Sep-14 08:57N 49°01' W 123°09'0 0.0
2017-Sep-14 08:30N 49°01' W 123°09'0 0.0
2017-Sep-14 08:00N 49°01' W 123°09'0 0.0
2017-Sep-14 07:30N 49°01' W 123°09'0 0.0
2017-Sep-14 07:00N 49°01' W 123°09'0 0.0
2017-Sep-14 06:30N 49°01' W 123°09'0 0.0
2017-Sep-14 06:00N 49°01' W 123°09'0 0.0
2017-Sep-14 05:30N 49°01' W 123°09'0 0.0
2017-Sep-14 05:00N 49°01' W 123°09'0 0.0
2017-Sep-14 04:30N 49°01' W 123°09'0 0.0
2017-Sep-14 04:00N 49°01' W 123°09'0 0.0
2017-Sep-14 03:30N 49°01' W 123°09'0 0.0
2017-Sep-14 03:00N 49°01' W 123°09'0 0.0
2017-Sep-14 02:30N 49°01' W 123°09'0 0.0
2017-Sep-14 02:00N 49°01' W 123°09'0 0.0
2017-Sep-14 01:30N 49°01' W 123°09'0 0.0
2017-Sep-14 01:00N 49°01' W 123°09'0 0.0
2017-Sep-14 00:30N 49°01' W 123°09'0 0.0
2017-Sep-14 00:00N 49°01' W 123°09'0 0.0
2017-Sep-13 23:30N 49°01' W 123°09'0 0.0
2017-Sep-13 23:00N 49°01' W 123°09'0 0.0
2017-Sep-13 22:30N 49°01' W 123°09'0 0.0
2017-Sep-13 22:00N 49°01' W 123°09'0 0.0
2017-Sep-13 21:30N 49°01' W 123°09'0 0.0
2017-Sep-13 21:00N 49°01' W 123°09'0 0.0
2017-Sep-13 20:30N 49°01' W 123°09'0 0.0
2017-Sep-13 20:00N 49°01' W 123°09'0 0.0
2017-Sep-13 19:30N 49°01' W 123°09'0 0.0
2017-Sep-13 19:00N 49°01' W 123°09'0 0.0
2017-Sep-13 17:54N 49°01' W 123°09'0 0.0
2017-Sep-13 17:30N 49°01' W 123°09'0 0.0
2017-Sep-13 17:00N 49°01' W 123°09'0 0.0
2017-Sep-13 16:27N 49°01' W 123°09'0 0.0
2017-Sep-13 15:54N 49°01' W 123°09'0 0.0
2017-Sep-13 15:30N 49°01' W 123°09'0 0.0
2017-Sep-13 15:00N 49°01' W 123°09'0 0.0
2017-Sep-13 14:30N 49°01' W 123°09'0 0.0
2017-Sep-13 14:00N 49°01' W 123°09'0 0.0
2017-Sep-13 13:30N 49°01' W 123°09'0 0.0
2017-Sep-13 13:00N 49°01' W 123°09'0 0.0
2017-Sep-13 12:30N 49°01' W 123°09'0 0.0
2017-Sep-13 12:00N 49°01' W 123°09'0 0.1
2017-Sep-13 11:30N 49°01' W 123°09'0 0.1
2017-Sep-13 11:00N 49°01' W 123°09'0 0.0
2017-Sep-13 10:30N 49°01' W 123°09'0 0.0
2017-Sep-13 10:00N 49°01' W 123°09'0 0.0
2017-Sep-13 09:30N 49°01' W 123°09'0 0.0
2017-Sep-13 09:00N 49°01' W 123°09'0 0.0
2017-Sep-13 08:30N 49°01' W 123°09'0 0.0
2017-Sep-13 08:00N 49°01' W 123°09'0 0.0
2017-Sep-13 07:30N 49°01' W 123°09'0 0.0
2017-Sep-13 07:00N 49°01' W 123°09'0 0.0
2017-Sep-13 06:30N 49°01' W 123°09'0 0.0
2017-Sep-13 05:57N 49°01' W 123°09'0 0.0
2017-Sep-13 05:30N 49°01' W 123°09'0 0.0
2017-Sep-13 05:00N 49°01' W 123°09'0 0.0
2017-Sep-13 04:30N 49°01' W 123°09'0 0.0
2017-Sep-13 04:00N 49°01' W 123°09'0 0.0
2017-Sep-13 03:27N 49°01' W 123°09'0 0.0
2017-Sep-13 03:00N 49°01' W 123°09'0 0.0
2017-Sep-13 02:27N 49°01' W 123°09'0 0.0
2017-Sep-13 02:00N 49°01' W 123°09'0 0.3
2017-Sep-13 01:30N 49°01' W 123°09'3 5.6
2017-Sep-13 01:00N 48°58' W 123°09'510.8
2017-Sep-13 00:31N 48°54' W 123°04'815.8
2017-Sep-13 00:01N 48°46' W 123°02'918.9
2017-Sep-12 23:30N 48°42' W 123°14'918.5
2017-Sep-12 23:00N 48°33' W 123°12'917.6
2017-Sep-12 22:30N 48°24' W 123°12'714.5
2017-Sep-12 22:00N 48°22' W 123°23'714.6
2017-Sep-12 21:31N 48°15' W 123°26'713.5
2017-Sep-12 21:00N 48°09' W 123°23'714.4
2017-Sep-12 20:30N 48°11' W 123°12'1019.6
2017-Sep-12 20:00N 48°12' W 122°57'1020.3
2017-Sep-12 19:30N 48°09' W 122°43'1019.7
2017-Sep-12 19:01N 48°01' W 122°36'1019.5
2017-Sep-12 18:31N 47°53' W 122°28'917.8
2017-Sep-12 18:01N 47°44' W 122°26'816.9
2017-Sep-12 17:31N 47°35' W 122°27'715.0
2017-Sep-12 17:01N 47°28' W 122°24'611.8
2017-Sep-12 16:30N 47°23' W 122°21'612.4
2017-Sep-12 16:00N 47°18' W 122°27'2 3.8
2017-Sep-12 15:30N 47°17' W 122°25'0 0.2
2017-Sep-12 14:59N 47°17' W 122°25'0 0.0
2017-Sep-12 14:29N 47°17' W 122°25'0 0.0
2017-Sep-12 13:59N 47°17' W 122°25'0 0.0
2017-Sep-12 13:29N 47°17' W 122°25'0 0.0
2017-Sep-12 12:59N 47°17' W 122°25'0 0.0
2017-Sep-12 12:26N 47°17' W 122°25'0 0.0
2017-Sep-12 11:59N 47°17' W 122°25'0 0.0
2017-Sep-12 11:29N 47°17' W 122°25'0 0.0
2017-Sep-12 10:59N 47°17' W 122°25'0 0.0
2017-Sep-12 10:26N 47°17' W 122°25'0 0.0
2017-Sep-12 09:59N 47°17' W 122°25'0 0.0
2017-Sep-12 09:29N 47°17' W 122°25'0 0.0
2017-Sep-12 08:59N 47°17' W 122°25'0 0.0
2017-Sep-12 08:29N 47°17' W 122°25'0 0.0
2017-Sep-12 07:59N 47°17' W 122°25'0 0.0
2017-Sep-12 07:29N 47°17' W 122°25'0 0.0
2017-Sep-12 06:59N 47°17' W 122°25'0 0.0
2017-Sep-12 06:26N 47°17' W 122°25'0 0.0
2017-Sep-12 05:56N 47°17' W 122°25'0 0.0
2017-Sep-12 05:26N 47°17' W 122°25'0 0.0
2017-Sep-12 04:32N 47°17' W 122°25'0 0.0
2017-Sep-12 04:20N 47°17' W 122°25'0 0.0
2017-Sep-12 03:59N 47°17' W 122°25'0 0.0
2017-Sep-12 02:50N 47°17' W 122°25'0 0.0
2017-Sep-12 01:26N 47°17' W 122°25'0 0.0
2017-Sep-12 00:59N 47°17' W 122°25'0 0.0
2017-Sep-12 00:29N 47°17' W 122°25'0 0.0
2017-Sep-11 23:59N 47°17' W 122°25'0 0.0
2017-Sep-11 23:29N 47°17' W 122°25'0 0.0
2017-Sep-11 22:59N 47°17' W 122°25'0 0.0
2017-Sep-11 22:29N 47°17' W 122°25'0 0.0
2017-Sep-11 21:59N 47°17' W 122°25'0 0.0
2017-Sep-11 21:29N 47°17' W 122°25'0 0.0
2017-Sep-11 20:59N 47°17' W 122°25'0 0.0
2017-Sep-11 20:29N 47°17' W 122°25'0 0.0
2017-Sep-11 19:56N 47°17' W 122°25'0 0.0
2017-Sep-11 19:29N 47°17' W 122°25'0 0.0
2017-Sep-11 18:59N 47°17' W 122°25'0 0.0
2017-Sep-11 18:29N 47°17' W 122°25'0 0.0
2017-Sep-11 17:59N 47°17' W 122°25'0 0.0
2017-Sep-11 17:29N 47°17' W 122°25'0 0.0
2017-Sep-11 16:53N 47°17' W 122°25'0 0.0
2017-Sep-11 16:29N 47°17' W 122°25'0 0.0
2017-Sep-11 15:59N 47°17' W 122°25'0 0.0
2017-Sep-11 15:26N 47°17' W 122°25'0 0.0
2017-Sep-11 14:56N 47°17' W 122°25'0 0.0
2017-Sep-11 14:29N 47°17' W 122°25'0 0.0
2017-Sep-11 13:59N 47°17' W 122°25'0 0.0
2017-Sep-11 13:23N 47°17' W 122°25'0 0.0
2017-Sep-11 12:56N 47°17' W 122°25'0 0.0
2017-Sep-11 12:29N 47°17' W 122°25'0 0.0
2017-Sep-11 11:59N 47°17' W 122°25'0 0.0
2017-Sep-11 11:26N 47°17' W 122°25'0 0.0
2017-Sep-11 10:59N 47°17' W 122°25'0 0.0
2017-Sep-11 10:26N 47°17' W 122°25'0 0.0
2017-Sep-11 09:59N 47°17' W 122°25'0 0.0
2017-Sep-11 09:29N 47°17' W 122°25'0 0.0
2017-Sep-11 08:59N 47°17' W 122°25'0 0.0
2017-Sep-11 08:29N 47°17' W 122°25'0 0.0
2017-Sep-11 07:56N 47°17' W 122°25'0 0.0
2017-Sep-11 07:29N 47°17' W 122°25'0 0.0
2017-Sep-11 06:59N 47°17' W 122°25'0 0.0
2017-Sep-11 06:26N 47°17' W 122°25'0 0.0
2017-Sep-11 05:59N 47°17' W 122°25'0 0.0
2017-Sep-11 05:29N 47°17' W 122°25'0 0.0
2017-Sep-11 04:59N 47°17' W 122°25'0 0.0
2017-Sep-11 04:08N 47°17' W 122°25'0 0.0
2017-Sep-11 03:44N 47°17' W 122°25'0 0.0
2017-Sep-11 03:29N 47°17' W 122°25'0 0.0
2017-Sep-11 02:59N 47°17' W 122°25'0 0.0
2017-Sep-11 02:29N 47°17' W 122°25'0 0.0
2017-Sep-11 01:59N 47°17' W 122°25'0 0.0
2017-Sep-11 01:29N 47°17' W 122°25'0 0.0
2017-Sep-11 00:59N 47°17' W 122°25'0 0.0
2017-Sep-11 00:29N 47°17' W 122°25'0 0.0
2017-Sep-10 23:59N 47°17' W 122°25'0 0.0
2017-Sep-10 23:29N 47°17' W 122°25'0 0.0
2017-Sep-10 22:59N 47°17' W 122°25'0 0.0
2017-Sep-10 22:29N 47°17' W 122°25'0 0.0
2017-Sep-10 21:56N 47°17' W 122°25'0 0.0
2017-Sep-10 21:29N 47°17' W 122°25'0 0.0
2017-Sep-10 20:59N 47°17' W 122°25'0 0.0
2017-Sep-10 20:29N 47°17' W 122°25'0 0.0
2017-Sep-10 19:59N 47°17' W 122°25'0 0.0
2017-Sep-10 19:26N 47°17' W 122°25'0 0.0
2017-Sep-10 18:59N 47°17' W 122°25'0 0.0
2017-Sep-10 18:29N 47°17' W 122°25'0 0.0
2017-Sep-10 17:59N 47°17' W 122°25'0 0.0
2017-Sep-10 17:29N 47°17' W 122°25'0 0.0
2017-Sep-10 16:59N 47°17' W 122°25'0 0.0
2017-Sep-10 16:29N 47°17' W 122°25'0 0.0
2017-Sep-10 15:56N 47°17' W 122°25'0 0.0
2017-Sep-10 15:29N 47°17' W 122°25'0 0.0
2017-Sep-10 14:59N 47°17' W 122°25'0 0.0
2017-Sep-10 13:59N 47°17' W 122°25'0 0.0
2017-Sep-10 13:26N 47°17' W 122°25'0 0.0
2017-Sep-10 12:59N 47°17' W 122°25'0 0.8
2017-Sep-10 12:30N 47°17' W 122°25'3 6.0
2017-Sep-10 12:00N 47°19' W 122°28'612.8
2017-Sep-10 11:31N 47°25' W 122°23'1019.1
2017-Sep-10 11:01N 47°34' W 122°27'1019.3
2017-Sep-10 10:31N 47°43' W 122°27'917.0
2017-Sep-10 10:00N 47°52' W 122°29'510.3
2017-Sep-10 09:30N 47°56' W 122°32'816.9
2017-Sep-10 09:00N 48°04' W 122°39'917.1
2017-Sep-10 08:30N 48°10' W 122°47'918.3
2017-Sep-10 08:00N 48°12' W 123°00'917.9
2017-Sep-10 07:30N 48°11' W 123°14'612.9
2017-Sep-10 07:00N 48°10' W 123°23'5 9.2
2017-Sep-10 06:30N 48°12' W 123°29'612.5
2017-Sep-10 06:00N 48°13' W 123°38'714.6
2017-Sep-10 05:30N 48°13' W 123°49'815.1
2017-Sep-10 05:00N 48°15' W 124°01'815.5
2017-Sep-10 04:30N 48°18' W 124°11'815.7
2017-Sep-10 04:00N 48°22' W 124°22'815.3
2017-Sep-10 03:30N 48°25' W 124°32'815.4
2017-Sep-10 03:00N 48°28' W 124°43'816.1
2017-Sep-10 02:30N 48°29' W 124°55'816.6
2017-Sep-10 02:00N 48°29' W 125°07'816.2
2017-Sep-10 01:30N 48°29' W 125°20'816.2
2017-Sep-10 01:01N 48°29' W 125°32'816.1
2017-Sep-10 00:30N 48°28' W 125°44'815.7
2017-Sep-10 00:00N 48°28' W 125°56'816.1
2017-Sep-09 23:30N 48°29' W 126°08'816.3
2017-Sep-09 23:00N 48°29' W 126°20'916.1
2017-Sep-09 22:27N 48°29' W 126°34'  

Dump ship's entire track history